sensor_id;sensor_type;location;lat;lon;timestamp;P1;durP1;ratioP1;P2;durP2;ratioP2
79414;SDS011;68864;44.972;19.612;2023-08-01T00:00:08;5.72;;;1.42;;
79414;SDS011;68864;44.972;19.612;2023-08-01T00:02:35;6.72;;;1.60;;
79414;SDS011;68864;44.972;19.612;2023-08-01T00:05:02;4.18;;;1.17;;
79414;SDS011;68864;44.972;19.612;2023-08-01T00:07:31;4.93;;;1.40;;
79414;SDS011;68864;44.972;19.612;2023-08-01T00:09:57;6.05;;;1.85;;
79414;SDS011;68864;44.972;19.612;2023-08-01T00:12:24;3.78;;;1.02;;
79414;SDS011;68864;44.972;19.612;2023-08-01T00:14:51;6.68;;;2.05;;
79414;SDS011;68864;44.972;19.612;2023-08-01T00:19:44;6.90;;;1.08;;
79414;SDS011;68864;44.972;19.612;2023-08-01T00:22:11;6.82;;;1.70;;
79414;SDS011;68864;44.972;19.612;2023-08-01T00:24:39;4.63;;;1.40;;
79414;SDS011;68864;44.972;19.612;2023-08-01T00:27:06;6.47;;;2.20;;
79414;SDS011;68864;44.972;19.612;2023-08-01T00:29:35;6.28;;;1.58;;
79414;SDS011;68864;44.972;19.612;2023-08-01T00:32:01;4.90;;;1.42;;
79414;SDS011;68864;44.972;19.612;2023-08-01T00:34:28;5.60;;;2.00;;
79414;SDS011;68864;44.972;19.612;2023-08-01T00:36:55;5.80;;;1.75;;
79414;SDS011;68864;44.972;19.612;2023-08-01T00:39:22;8.23;;;1.83;;
79414;SDS011;68864;44.972;19.612;2023-08-01T00:41:50;4.70;;;1.70;;
79414;SDS011;68864;44.972;19.612;2023-08-01T00:44:17;6.65;;;1.30;;
79414;SDS011;68864;44.972;19.612;2023-08-01T00:49:11;4.15;;;1.42;;
79414;SDS011;68864;44.972;19.612;2023-08-01T00:51:38;6.28;;;1.40;;
79414;SDS011;68864;44.972;19.612;2023-08-01T00:54:05;6.18;;;1.38;;
79414;SDS011;68864;44.972;19.612;2023-08-01T00:59:00;5.30;;;2.22;;
79414;SDS011;68864;44.972;19.612;2023-08-01T01:01:27;6.82;;;1.70;;
79414;SDS011;68864;44.972;19.612;2023-08-01T01:03:54;6.35;;;1.73;;
79414;SDS011;68864;44.972;19.612;2023-08-01T01:06:23;4.60;;;1.88;;
79414;SDS011;68864;44.972;19.612;2023-08-01T01:08:54;5.55;;;1.73;;
79414;SDS011;68864;44.972;19.612;2023-08-01T01:11:21;5.82;;;2.17;;
79414;SDS011;68864;44.972;19.612;2023-08-01T01:16:19;4.13;;;0.98;;
79414;SDS011;68864;44.972;19.612;2023-08-01T01:18:46;4.38;;;1.25;;
79414;SDS011;68864;44.972;19.612;2023-08-01T01:21:14;4.03;;;1.25;;
79414;SDS011;68864;44.972;19.612;2023-08-01T01:23:41;5.95;;;1.73;;
79414;SDS011;68864;44.972;19.612;2023-08-01T01:26:09;4.68;;;1.60;;
79414;SDS011;68864;44.972;19.612;2023-08-01T01:28:37;4.32;;;1.25;;
79414;SDS011;68864;44.972;19.612;2023-08-01T01:31:04;5.38;;;1.48;;
79414;SDS011;68864;44.972;19.612;2023-08-01T01:33:31;6.15;;;1.40;;
79414;SDS011;68864;44.972;19.612;2023-08-01T01:36:00;5.97;;;1.23;;
79414;SDS011;68864;44.972;19.612;2023-08-01T01:38:28;5.00;;;1.35;;
79414;SDS011;68864;44.972;19.612;2023-08-01T01:40:55;9.57;;;2.15;;
79414;SDS011;68864;44.972;19.612;2023-08-01T01:43:22;5.50;;;1.83;;
79414;SDS011;68864;44.972;19.612;2023-08-01T01:45:48;4.53;;;1.10;;
79414;SDS011;68864;44.972;19.612;2023-08-01T01:48:15;4.80;;;2.22;;
79414;SDS011;68864;44.972;19.612;2023-08-01T01:53:09;4.57;;;1.05;;
79414;SDS011;68864;44.972;19.612;2023-08-01T01:55:37;5.50;;;1.65;;
79414;SDS011;68864;44.972;19.612;2023-08-01T01:58:03;4.53;;;1.23;;
79414;SDS011;68864;44.972;19.612;2023-08-01T02:00:31;3.65;;;1.17;;
79414;SDS011;68864;44.972;19.612;2023-08-01T02:02:58;5.80;;;1.30;;
79414;SDS011;68864;44.972;19.612;2023-08-01T02:05:25;8.38;;;2.10;;
79414;SDS011;68864;44.972;19.612;2023-08-01T02:07:52;5.85;;;1.50;;
79414;SDS011;68864;44.972;19.612;2023-08-01T02:10:18;4.22;;;0.80;;
79414;SDS011;68864;44.972;19.612;2023-08-01T02:12:46;4.90;;;1.13;;
79414;SDS011;68864;44.972;19.612;2023-08-01T02:15:13;3.90;;;1.23;;
79414;SDS011;68864;44.972;19.612;2023-08-01T02:17:40;5.60;;;1.63;;
79414;SDS011;68864;44.972;19.612;2023-08-01T02:20:07;5.30;;;1.27;;
79414;SDS011;68864;44.972;19.612;2023-08-01T02:22:34;5.80;;;1.45;;
79414;SDS011;68864;44.972;19.612;2023-08-01T02:25:01;9.68;;;1.25;;
79414;SDS011;68864;44.972;19.612;2023-08-01T02:29:56;5.53;;;1.10;;
79414;SDS011;68864;44.972;19.612;2023-08-01T02:32:22;4.05;;;1.08;;
79414;SDS011;68864;44.972;19.612;2023-08-01T02:34:49;5.45;;;0.68;;
79414;SDS011;68864;44.972;19.612;2023-08-01T02:37:16;3.88;;;0.60;;
79414;SDS011;68864;44.972;19.612;2023-08-01T02:39:43;4.63;;;0.93;;
79414;SDS011;68864;44.972;19.612;2023-08-01T02:42:09;3.92;;;0.70;;
79414;SDS011;68864;44.972;19.612;2023-08-01T02:44:36;5.55;;;0.68;;
79414;SDS011;68864;44.972;19.612;2023-08-01T02:47:04;4.22;;;0.80;;
79414;SDS011;68864;44.972;19.612;2023-08-01T02:49:32;4.43;;;1.33;;
79414;SDS011;68864;44.972;19.612;2023-08-01T02:51:59;4.35;;;1.48;;
79414;SDS011;68864;44.972;19.612;2023-08-01T02:56:52;6.45;;;1.05;;
79414;SDS011;68864;44.972;19.612;2023-08-01T02:59:19;4.90;;;0.93;;
79414;SDS011;68864;44.972;19.612;2023-08-01T03:01:45;6.38;;;1.63;;
79414;SDS011;68864;44.972;19.612;2023-08-01T03:04:14;3.38;;;1.05;;
79414;SDS011;68864;44.972;19.612;2023-08-01T03:06:40;4.35;;;0.93;;
79414;SDS011;68864;44.972;19.612;2023-08-01T03:09:07;6.32;;;1.10;;
79414;SDS011;68864;44.972;19.612;2023-08-01T03:11:35;6.32;;;1.50;;
79414;SDS011;68864;44.972;19.612;2023-08-01T03:14:02;6.80;;;2.63;;
79414;SDS011;68864;44.972;19.612;2023-08-01T03:16:30;9.63;;;1.77;;
79414;SDS011;68864;44.972;19.612;2023-08-01T03:18:57;7.63;;;1.95;;
79414;SDS011;68864;44.972;19.612;2023-08-01T03:21:30;5.07;;;1.42;;
79414;SDS011;68864;44.972;19.612;2023-08-01T03:23:58;5.63;;;1.15;;
79414;SDS011;68864;44.972;19.612;2023-08-01T03:26:25;7.07;;;0.73;;
79414;SDS011;68864;44.972;19.612;2023-08-01T03:28:53;5.90;;;0.77;;
79414;SDS011;68864;44.972;19.612;2023-08-01T03:31:20;4.90;;;0.57;;
79414;SDS011;68864;44.972;19.612;2023-08-01T03:33:47;3.25;;;0.65;;
79414;SDS011;68864;44.972;19.612;2023-08-01T03:36:13;2.78;;;0.50;;
79414;SDS011;68864;44.972;19.612;2023-08-01T03:41:08;3.00;;;0.93;;
79414;SDS011;68864;44.972;19.612;2023-08-01T03:43:35;2.20;;;0.47;;
79414;SDS011;68864;44.972;19.612;2023-08-01T03:46:03;3.10;;;0.70;;
79414;SDS011;68864;44.972;19.612;2023-08-01T03:48:30;4.63;;;0.82;;
79414;SDS011;68864;44.972;19.612;2023-08-01T03:50:56;6.32;;;1.33;;
79414;SDS011;68864;44.972;19.612;2023-08-01T03:53:23;5.65;;;1.33;;
79414;SDS011;68864;44.972;19.612;2023-08-01T03:55:51;5.53;;;0.52;;
79414;SDS011;68864;44.972;19.612;2023-08-01T03:58:18;3.33;;;1.63;;
79414;SDS011;68864;44.972;19.612;2023-08-01T04:00:45;5.03;;;1.00;;
79414;SDS011;68864;44.972;19.612;2023-08-01T04:03:12;3.00;;;0.60;;
79414;SDS011;68864;44.972;19.612;2023-08-01T04:05:38;3.33;;;0.77;;
79414;SDS011;68864;44.972;19.612;2023-08-01T04:08:06;5.47;;;1.73;;
79414;SDS011;68864;44.972;19.612;2023-08-01T04:10:33;3.25;;;1.17;;
79414;SDS011;68864;44.972;19.612;2023-08-01T04:13:01;4.35;;;1.27;;
79414;SDS011;68864;44.972;19.612;2023-08-01T04:15:28;3.38;;;0.77;;
79414;SDS011;68864;44.972;19.612;2023-08-01T04:17:55;4.28;;;0.63;;
79414;SDS011;68864;44.972;19.612;2023-08-01T04:20:22;2.88;;;0.60;;
79414;SDS011;68864;44.972;19.612;2023-08-01T04:22:48;3.40;;;0.55;;
79414;SDS011;68864;44.972;19.612;2023-08-01T04:25:15;3.20;;;1.00;;
79414;SDS011;68864;44.972;19.612;2023-08-01T04:30:10;3.30;;;0.50;;
79414;SDS011;68864;44.972;19.612;2023-08-01T04:32:37;4.75;;;1.38;;
79414;SDS011;68864;44.972;19.612;2023-08-01T04:35:04;6.60;;;2.60;;
79414;SDS011;68864;44.972;19.612;2023-08-01T04:37:32;13.77;;;2.63;;
79414;SDS011;68864;44.972;19.612;2023-08-01T04:39:58;6.95;;;1.80;;
79414;SDS011;68864;44.972;19.612;2023-08-01T04:42:25;9.23;;;2.38;;
79414;SDS011;68864;44.972;19.612;2023-08-01T04:47:20;6.38;;;1.42;;
79414;SDS011;68864;44.972;19.612;2023-08-01T04:49:47;5.97;;;2.33;;
79414;SDS011;68864;44.972;19.612;2023-08-01T04:52:14;6.85;;;1.60;;
79414;SDS011;68864;44.972;19.612;2023-08-01T04:54:40;11.63;;;2.50;;
79414;SDS011;68864;44.972;19.612;2023-08-01T04:57:07;6.85;;;2.08;;
79414;SDS011;68864;44.972;19.612;2023-08-01T04:59:34;10.02;;;3.22;;
79414;SDS011;68864;44.972;19.612;2023-08-01T05:02:01;8.15;;;3.10;;
79414;SDS011;68864;44.972;19.612;2023-08-01T05:04:29;7.20;;;2.83;;
79414;SDS011;68864;44.972;19.612;2023-08-01T05:06:56;11.25;;;3.50;;
79414;SDS011;68864;44.972;19.612;2023-08-01T05:09:23;8.02;;;2.13;;
79414;SDS011;68864;44.972;19.612;2023-08-01T05:11:49;8.02;;;2.22;;
79414;SDS011;68864;44.972;19.612;2023-08-01T05:14:16;8.38;;;3.05;;
79414;SDS011;68864;44.972;19.612;2023-08-01T05:16:43;8.00;;;2.53;;
79414;SDS011;68864;44.972;19.612;2023-08-01T05:19:10;8.30;;;2.97;;
79414;SDS011;68864;44.972;19.612;2023-08-01T05:21:38;8.15;;;3.25;;
79414;SDS011;68864;44.972;19.612;2023-08-01T05:24:05;7.30;;;3.40;;
79414;SDS011;68864;44.972;19.612;2023-08-01T05:26:31;8.75;;;2.00;;
79414;SDS011;68864;44.972;19.612;2023-08-01T05:28:58;7.10;;;3.35;;
79414;SDS011;68864;44.972;19.612;2023-08-01T05:31:25;9.82;;;2.75;;
79414;SDS011;68864;44.972;19.612;2023-08-01T05:33:52;7.20;;;2.10;;
79414;SDS011;68864;44.972;19.612;2023-08-01T05:36:18;7.93;;;2.50;;
79414;SDS011;68864;44.972;19.612;2023-08-01T05:38:46;7.05;;;2.78;;
79414;SDS011;68864;44.972;19.612;2023-08-01T05:41:13;9.82;;;2.85;;
79414;SDS011;68864;44.972;19.612;2023-08-01T05:43:40;7.10;;;2.28;;
79414;SDS011;68864;44.972;19.612;2023-08-01T05:46:07;7.72;;;2.20;;
79414;SDS011;68864;44.972;19.612;2023-08-01T05:48:34;7.32;;;2.20;;
79414;SDS011;68864;44.972;19.612;2023-08-01T05:51:00;7.43;;;2.00;;
79414;SDS011;68864;44.972;19.612;2023-08-01T05:53:27;8.50;;;1.90;;
79414;SDS011;68864;44.972;19.612;2023-08-01T05:55:56;7.35;;;1.75;;
79414;SDS011;68864;44.972;19.612;2023-08-01T05:58:23;13.10;;;2.28;;
79414;SDS011;68864;44.972;19.612;2023-08-01T06:00:50;10.02;;;2.53;;
79414;SDS011;68864;44.972;19.612;2023-08-01T06:05:43;9.38;;;2.28;;
79414;SDS011;68864;44.972;19.612;2023-08-01T06:08:10;6.97;;;2.35;;
79414;SDS011;68864;44.972;19.612;2023-08-01T06:10:38;6.05;;;1.95;;
79414;SDS011;68864;44.972;19.612;2023-08-01T06:15:33;7.10;;;3.00;;
79414;SDS011;68864;44.972;19.612;2023-08-01T06:18:00;6.30;;;1.88;;
79414;SDS011;68864;44.972;19.612;2023-08-01T06:20:28;5.88;;;1.58;;
79414;SDS011;68864;44.972;19.612;2023-08-01T06:22:54;10.07;;;2.40;;
79414;SDS011;68864;44.972;19.612;2023-08-01T06:25:21;8.55;;;1.80;;
79414;SDS011;68864;44.972;19.612;2023-08-01T06:27:48;7.50;;;2.17;;
79414;SDS011;68864;44.972;19.612;2023-08-01T06:30:16;9.95;;;2.05;;
79414;SDS011;68864;44.972;19.612;2023-08-01T06:32:43;7.60;;;1.60;;
79414;SDS011;68864;44.972;19.612;2023-08-01T06:35:10;7.07;;;1.75;;
79414;SDS011;68864;44.972;19.612;2023-08-01T06:37:37;9.35;;;2.25;;
79414;SDS011;68864;44.972;19.612;2023-08-01T06:40:04;8.82;;;1.40;;
79414;SDS011;68864;44.972;19.612;2023-08-01T06:42:31;9.43;;;2.92;;
79414;SDS011;68864;44.972;19.612;2023-08-01T06:44:58;7.65;;;1.83;;
79414;SDS011;68864;44.972;19.612;2023-08-01T06:47:26;7.38;;;1.77;;
79414;SDS011;68864;44.972;19.612;2023-08-01T06:49:53;8.13;;;1.73;;
79414;SDS011;68864;44.972;19.612;2023-08-01T06:52:20;7.07;;;1.95;;
79414;SDS011;68864;44.972;19.612;2023-08-01T06:54:46;6.70;;;1.60;;
79414;SDS011;68864;44.972;19.612;2023-08-01T06:57:13;17.85;;;3.25;;
79414;SDS011;68864;44.972;19.612;2023-08-01T06:59:40;8.40;;;2.85;;
79414;SDS011;68864;44.972;19.612;2023-08-01T07:04:35;9.60;;;2.25;;
79414;SDS011;68864;44.972;19.612;2023-08-01T07:07:03;10.85;;;2.88;;
79414;SDS011;68864;44.972;19.612;2023-08-01T07:09:30;5.18;;;2.15;;
79414;SDS011;68864;44.972;19.612;2023-08-01T07:11:56;7.40;;;2.03;;
79414;SDS011;68864;44.972;19.612;2023-08-01T07:16:50;5.28;;;1.88;;
79414;SDS011;68864;44.972;19.612;2023-08-01T07:19:16;8.23;;;2.08;;
79414;SDS011;68864;44.972;19.612;2023-08-01T07:21:45;6.53;;;2.15;;
79414;SDS011;68864;44.972;19.612;2023-08-01T07:24:13;4.68;;;1.67;;
79414;SDS011;68864;44.972;19.612;2023-08-01T07:26:40;4.18;;;1.02;;
79414;SDS011;68864;44.972;19.612;2023-08-01T07:29:06;6.60;;;2.13;;
79414;SDS011;68864;44.972;19.612;2023-08-01T07:31:35;6.15;;;1.30;;
79414;SDS011;68864;44.972;19.612;2023-08-01T07:34:02;6.43;;;3.15;;
79414;SDS011;68864;44.972;19.612;2023-08-01T07:36:29;4.78;;;1.92;;
79414;SDS011;68864;44.972;19.612;2023-08-01T07:38:57;5.45;;;1.38;;
79414;SDS011;68864;44.972;19.612;2023-08-01T07:41:24;6.60;;;2.65;;
79414;SDS011;68864;44.972;19.612;2023-08-01T07:43:50;7.60;;;1.48;;
79414;SDS011;68864;44.972;19.612;2023-08-01T07:46:17;6.03;;;1.67;;
79414;SDS011;68864;44.972;19.612;2023-08-01T07:48:44;8.30;;;1.80;;
79414;SDS011;68864;44.972;19.612;2023-08-01T07:51:11;4.63;;;1.65;;
79414;SDS011;68864;44.972;19.612;2023-08-01T07:53:37;6.88;;;0.95;;
79414;SDS011;68864;44.972;19.612;2023-08-01T07:56:06;7.50;;;1.73;;
79414;SDS011;68864;44.972;19.612;2023-08-01T07:58:33;6.03;;;1.85;;
79414;SDS011;68864;44.972;19.612;2023-08-01T08:01:02;4.75;;;2.05;;
79414;SDS011;68864;44.972;19.612;2023-08-01T08:03:29;7.57;;;1.58;;
79414;SDS011;68864;44.972;19.612;2023-08-01T08:05:56;4.13;;;1.58;;
79414;SDS011;68864;44.972;19.612;2023-08-01T08:08:23;3.17;;;1.20;;
79414;SDS011;68864;44.972;19.612;2023-08-01T08:10:50;4.35;;;1.45;;
79414;SDS011;68864;44.972;19.612;2023-08-01T08:13:18;2.22;;;0.90;;
79414;SDS011;68864;44.972;19.612;2023-08-01T08:15:45;4.82;;;1.23;;
79414;SDS011;68864;44.972;19.612;2023-08-01T08:18:12;4.07;;;0.70;;
79414;SDS011;68864;44.972;19.612;2023-08-01T08:20:42;3.72;;;1.42;;
79414;SDS011;68864;44.972;19.612;2023-08-01T08:23:10;3.78;;;0.45;;
79414;SDS011;68864;44.972;19.612;2023-08-01T08:25:39;4.55;;;0.65;;
79414;SDS011;68864;44.972;19.612;2023-08-01T08:28:06;3.42;;;1.02;;
79414;SDS011;68864;44.972;19.612;2023-08-01T08:30:34;9.15;;;1.27;;
79414;SDS011;68864;44.972;19.612;2023-08-01T08:33:01;6.95;;;0.88;;
79414;SDS011;68864;44.972;19.612;2023-08-01T08:35:31;3.03;;;0.98;;
79414;SDS011;68864;44.972;19.612;2023-08-01T08:37:59;6.03;;;1.15;;
79414;SDS011;68864;44.972;19.612;2023-08-01T08:40:28;5.47;;;1.60;;
79414;SDS011;68864;44.972;19.612;2023-08-01T08:42:55;6.10;;;0.85;;
79414;SDS011;68864;44.972;19.612;2023-08-01T08:45:25;3.83;;;0.60;;
79414;SDS011;68864;44.972;19.612;2023-08-01T08:47:55;5.53;;;1.10;;
79414;SDS011;68864;44.972;19.612;2023-08-01T08:50:22;3.88;;;0.55;;
79414;SDS011;68864;44.972;19.612;2023-08-01T08:52:51;2.80;;;0.80;;
79414;SDS011;68864;44.972;19.612;2023-08-01T08:55:19;3.35;;;0.40;;
79414;SDS011;68864;44.972;19.612;2023-08-01T08:57:48;2.72;;;0.70;;
79414;SDS011;68864;44.972;19.612;2023-08-01T09:00:16;4.28;;;0.60;;
79414;SDS011;68864;44.972;19.612;2023-08-01T09:02:43;5.65;;;0.55;;
79414;SDS011;68864;44.972;19.612;2023-08-01T09:05:12;3.92;;;0.90;;
79414;SDS011;68864;44.972;19.612;2023-08-01T09:07:39;2.83;;;0.43;;
79414;SDS011;68864;44.972;19.612;2023-08-01T09:10:09;5.65;;;1.00;;
79414;SDS011;68864;44.972;19.612;2023-08-01T09:12:36;5.63;;;0.63;;
79414;SDS011;68864;44.972;19.612;2023-08-01T09:15:03;4.57;;;1.25;;
79414;SDS011;68864;44.972;19.612;2023-08-01T09:17:30;6.32;;;0.57;;
79414;SDS011;68864;44.972;19.612;2023-08-01T09:20:02;7.72;;;1.42;;
79414;SDS011;68864;44.972;19.612;2023-08-01T09:22:41;7.80;;;1.75;;
79414;SDS011;68864;44.972;19.612;2023-08-01T09:25:09;3.25;;;1.27;;
79414;SDS011;68864;44.972;19.612;2023-08-01T09:27:36;4.70;;;0.50;;
79414;SDS011;68864;44.972;19.612;2023-08-01T09:30:07;3.13;;;0.60;;
79414;SDS011;68864;44.972;19.612;2023-08-01T09:32:36;5.10;;;0.60;;
79414;SDS011;68864;44.972;19.612;2023-08-01T09:35:03;3.00;;;0.77;;
79414;SDS011;68864;44.972;19.612;2023-08-01T09:37:40;4.55;;;0.80;;
79414;SDS011;68864;44.972;19.612;2023-08-01T09:40:09;3.05;;;0.50;;
79414;SDS011;68864;44.972;19.612;2023-08-01T09:42:39;3.47;;;0.77;;
79414;SDS011;68864;44.972;19.612;2023-08-01T09:45:11;3.05;;;0.50;;
79414;SDS011;68864;44.972;19.612;2023-08-01T09:47:39;3.80;;;1.52;;
79414;SDS011;68864;44.972;19.612;2023-08-01T09:50:07;3.85;;;1.05;;
79414;SDS011;68864;44.972;19.612;2023-08-01T09:52:35;5.10;;;0.80;;
79414;SDS011;68864;44.972;19.612;2023-08-01T09:55:04;4.75;;;0.57;;
79414;SDS011;68864;44.972;19.612;2023-08-01T09:57:31;7.15;;;0.57;;
79414;SDS011;68864;44.972;19.612;2023-08-01T09:59:59;3.00;;;0.40;;
79414;SDS011;68864;44.972;19.612;2023-08-01T10:02:26;4.68;;;0.60;;
79414;SDS011;68864;44.972;19.612;2023-08-01T10:04:57;4.15;;;0.57;;
79414;SDS011;68864;44.972;19.612;2023-08-01T10:07:28;2.97;;;0.88;;
79414;SDS011;68864;44.972;19.612;2023-08-01T10:09:57;4.60;;;0.88;;
79414;SDS011;68864;44.972;19.612;2023-08-01T10:12:26;2.60;;;0.63;;
79414;SDS011;68864;44.972;19.612;2023-08-01T10:18:03;2.63;;;1.02;;
79414;SDS011;68864;44.972;19.612;2023-08-01T10:20:30;2.95;;;0.40;;
79414;SDS011;68864;44.972;19.612;2023-08-01T10:22:58;4.63;;;0.68;;
79414;SDS011;68864;44.972;19.612;2023-08-01T10:25:26;3.58;;;1.10;;
79414;SDS011;68864;44.972;19.612;2023-08-01T10:28:00;1.95;;;0.30;;
79414;SDS011;68864;44.972;19.612;2023-08-01T10:30:28;3.50;;;0.70;;
79414;SDS011;68864;44.972;19.612;2023-08-01T10:32:56;2.97;;;1.33;;
79414;SDS011;68864;44.972;19.612;2023-08-01T10:35:33;2.55;;;0.40;;
79414;SDS011;68864;44.972;19.612;2023-08-01T10:38:04;2.92;;;0.30;;
79414;SDS011;68864;44.972;19.612;2023-08-01T10:40:35;2.08;;;0.70;;
79414;SDS011;68864;44.972;19.612;2023-08-01T10:43:04;2.75;;;0.50;;
79414;SDS011;68864;44.972;19.612;2023-08-01T10:45:31;2.65;;;0.63;;
79414;SDS011;68864;44.972;19.612;2023-08-01T10:48:07;4.57;;;0.60;;
79414;SDS011;68864;44.972;19.612;2023-08-01T10:50:35;2.95;;;0.40;;
79414;SDS011;68864;44.972;19.612;2023-08-01T10:53:03;4.40;;;0.25;;
79414;SDS011;68864;44.972;19.612;2023-08-01T10:55:44;2.75;;;0.45;;
79414;SDS011;68864;44.972;19.612;2023-08-01T10:58:13;5.40;;;1.33;;
79414;SDS011;68864;44.972;19.612;2023-08-01T11:00:41;2.78;;;0.32;;
79414;SDS011;68864;44.972;19.612;2023-08-01T11:03:08;2.90;;;0.40;;
79414;SDS011;68864;44.972;19.612;2023-08-01T11:05:35;2.65;;;0.40;;
79414;SDS011;68864;44.972;19.612;2023-08-01T11:08:02;4.10;;;0.43;;
79414;SDS011;68864;44.972;19.612;2023-08-01T11:10:31;3.22;;;0.50;;
79414;SDS011;68864;44.972;19.612;2023-08-01T11:12:59;3.75;;;1.23;;
79414;SDS011;68864;44.972;19.612;2023-08-01T11:15:27;2.88;;;0.45;;
79414;SDS011;68864;44.972;19.612;2023-08-01T11:17:54;4.80;;;1.50;;
79414;SDS011;68864;44.972;19.612;2023-08-01T11:20:22;3.75;;;0.75;;
79414;SDS011;68864;44.972;19.612;2023-08-01T11:22:51;2.80;;;0.57;;
79414;SDS011;68864;44.972;19.612;2023-08-01T11:25:19;4.03;;;0.50;;
79414;SDS011;68864;44.972;19.612;2023-08-01T11:27:57;4.03;;;0.50;;
79414;SDS011;68864;44.972;19.612;2023-08-01T11:30:30;4.03;;;0.30;;
79414;SDS011;68864;44.972;19.612;2023-08-01T11:32:58;4.38;;;0.43;;
79414;SDS011;68864;44.972;19.612;2023-08-01T11:35:25;7.97;;;0.60;;
79414;SDS011;68864;44.972;19.612;2023-08-01T11:37:52;5.07;;;0.30;;
79414;SDS011;68864;44.972;19.612;2023-08-01T11:40:19;2.35;;;0.40;;
79414;SDS011;68864;44.972;19.612;2023-08-01T11:42:48;4.32;;;0.40;;
79414;SDS011;68864;44.972;19.612;2023-08-01T11:45:16;1.77;;;0.30;;
79414;SDS011;68864;44.972;19.612;2023-08-01T11:47:47;2.83;;;0.73;;
79414;SDS011;68864;44.972;19.612;2023-08-01T11:50:14;3.05;;;0.63;;
79414;SDS011;68864;44.972;19.612;2023-08-01T11:52:47;3.25;;;0.65;;
79414;SDS011;68864;44.972;19.612;2023-08-01T11:55:18;2.10;;;0.30;;
79414;SDS011;68864;44.972;19.612;2023-08-01T11:57:51;4.32;;;0.52;;
79414;SDS011;68864;44.972;19.612;2023-08-01T12:00:20;2.45;;;0.30;;
79414;SDS011;68864;44.972;19.612;2023-08-01T12:02:49;3.33;;;0.50;;
79414;SDS011;68864;44.972;19.612;2023-08-01T12:05:21;3.05;;;0.50;;
79414;SDS011;68864;44.972;19.612;2023-08-01T12:07:48;2.22;;;0.32;;
79414;SDS011;68864;44.972;19.612;2023-08-01T12:10:15;3.88;;;0.40;;
79414;SDS011;68864;44.972;19.612;2023-08-01T12:12:43;3.28;;;0.73;;
79414;SDS011;68864;44.972;19.612;2023-08-01T12:15:11;4.18;;;0.38;;
79414;SDS011;68864;44.972;19.612;2023-08-01T12:17:38;4.57;;;1.35;;
79414;SDS011;68864;44.972;19.612;2023-08-01T12:20:07;5.38;;;0.40;;
79414;SDS011;68864;44.972;19.612;2023-08-01T12:22:34;3.25;;;1.25;;
79414;SDS011;68864;44.972;19.612;2023-08-01T12:25:01;3.17;;;0.95;;
79414;SDS011;68864;44.972;19.612;2023-08-01T12:27:28;1.95;;;0.40;;
79414;SDS011;68864;44.972;19.612;2023-08-01T12:32:22;2.55;;;0.73;;
79414;SDS011;68864;44.972;19.612;2023-08-01T12:34:48;2.92;;;0.40;;
79414;SDS011;68864;44.972;19.612;2023-08-01T12:37:16;2.67;;;0.68;;
79414;SDS011;68864;44.972;19.612;2023-08-01T12:39:43;3.20;;;0.30;;
79414;SDS011;68864;44.972;19.612;2023-08-01T12:42:10;1.48;;;0.20;;
79414;SDS011;68864;44.972;19.612;2023-08-01T12:44:37;3.45;;;0.40;;
79414;SDS011;68864;44.972;19.612;2023-08-01T12:47:04;4.85;;;0.30;;
79414;SDS011;68864;44.972;19.612;2023-08-01T12:49:32;2.03;;;0.50;;
79414;SDS011;68864;44.972;19.612;2023-08-01T12:51:59;5.60;;;0.68;;
79414;SDS011;68864;44.972;19.612;2023-08-01T12:54:27;2.47;;;0.63;;
79414;SDS011;68864;44.972;19.612;2023-08-01T12:56:54;2.47;;;0.43;;
79414;SDS011;68864;44.972;19.612;2023-08-01T12:59:21;3.90;;;1.10;;
79414;SDS011;68864;44.972;19.612;2023-08-01T13:01:48;4.82;;;0.50;;
79414;SDS011;68864;44.972;19.612;2023-08-01T13:04:14;4.32;;;1.23;;
79414;SDS011;68864;44.972;19.612;2023-08-01T13:06:41;4.72;;;0.95;;
79414;SDS011;68864;44.972;19.612;2023-08-01T13:09:08;3.53;;;0.77;;
79414;SDS011;68864;44.972;19.612;2023-08-01T13:11:38;2.05;;;0.57;;
79414;SDS011;68864;44.972;19.612;2023-08-01T13:14:05;2.95;;;1.27;;
79414;SDS011;68864;44.972;19.612;2023-08-01T13:16:31;3.33;;;0.80;;
79414;SDS011;68864;44.972;19.612;2023-08-01T13:18:58;4.90;;;0.60;;
79414;SDS011;68864;44.972;19.612;2023-08-01T13:21:25;4.43;;;0.57;;
79414;SDS011;68864;44.972;19.612;2023-08-01T13:23:52;4.75;;;0.88;;
79414;SDS011;68864;44.972;19.612;2023-08-01T13:26:19;2.70;;;0.38;;
79414;SDS011;68864;44.972;19.612;2023-08-01T13:28:47;4.95;;;0.30;;
79414;SDS011;68864;44.972;19.612;2023-08-01T13:31:14;5.75;;;0.50;;
79414;SDS011;68864;44.972;19.612;2023-08-01T13:33:41;2.30;;;0.40;;
79414;SDS011;68864;44.972;19.612;2023-08-01T13:36:08;2.03;;;0.50;;
79414;SDS011;68864;44.972;19.612;2023-08-01T13:38:35;1.90;;;0.40;;
79414;SDS011;68864;44.972;19.612;2023-08-01T13:41:02;1.90;;;0.40;;
79414;SDS011;68864;44.972;19.612;2023-08-01T13:43:28;3.00;;;0.30;;
79414;SDS011;68864;44.972;19.612;2023-08-01T13:45:56;5.38;;;0.40;;
79414;SDS011;68864;44.972;19.612;2023-08-01T13:48:23;4.47;;;0.45;;
79414;SDS011;68864;44.972;19.612;2023-08-01T13:50:50;2.08;;;1.13;;
79414;SDS011;68864;44.972;19.612;2023-08-01T13:53:17;3.85;;;0.52;;
79414;SDS011;68864;44.972;19.612;2023-08-01T13:55:44;3.08;;;0.38;;
79414;SDS011;68864;44.972;19.612;2023-08-01T14:00:38;1.42;;;0.30;;
79414;SDS011;68864;44.972;19.612;2023-08-01T14:03:06;3.83;;;0.60;;
79414;SDS011;68864;44.972;19.612;2023-08-01T14:05:32;3.20;;;0.70;;
79414;SDS011;68864;44.972;19.612;2023-08-01T14:07:59;2.40;;;0.50;;
79414;SDS011;68864;44.972;19.612;2023-08-01T14:10:27;2.40;;;1.52;;
79414;SDS011;68864;44.972;19.612;2023-08-01T14:12:54;3.58;;;1.02;;
79414;SDS011;68864;44.972;19.612;2023-08-01T14:15:20;2.60;;;0.20;;
79414;SDS011;68864;44.972;19.612;2023-08-01T14:17:47;9.07;;;0.57;;
79414;SDS011;68864;44.972;19.612;2023-08-01T14:20:16;3.28;;;0.38;;
79414;SDS011;68864;44.972;19.612;2023-08-01T14:22:43;4.82;;;0.80;;
79414;SDS011;68864;44.972;19.612;2023-08-01T14:25:10;2.30;;;0.40;;
79414;SDS011;68864;44.972;19.612;2023-08-01T14:27:37;2.97;;;0.40;;
79414;SDS011;68864;44.972;19.612;2023-08-01T14:30:04;2.05;;;0.30;;
79414;SDS011;68864;44.972;19.612;2023-08-01T14:32:31;4.78;;;0.73;;
79414;SDS011;68864;44.972;19.612;2023-08-01T14:34:58;2.25;;;0.57;;
79414;SDS011;68864;44.972;19.612;2023-08-01T14:37:26;1.98;;;0.75;;
79414;SDS011;68864;44.972;19.612;2023-08-01T14:39:54;2.55;;;0.40;;
79414;SDS011;68864;44.972;19.612;2023-08-01T14:42:21;1.90;;;0.43;;
79414;SDS011;68864;44.972;19.612;2023-08-01T14:44:51;5.15;;;1.48;;
79414;SDS011;68864;44.972;19.612;2023-08-01T14:47:19;2.35;;;0.40;;
79414;SDS011;68864;44.972;19.612;2023-08-01T14:49:45;3.80;;;0.52;;
79414;SDS011;68864;44.972;19.612;2023-08-01T14:52:12;3.08;;;0.50;;
79414;SDS011;68864;44.972;19.612;2023-08-01T14:54:40;3.40;;;0.47;;
79414;SDS011;68864;44.972;19.612;2023-08-01T14:57:07;2.55;;;0.35;;
79414;SDS011;68864;44.972;19.612;2023-08-01T14:59:34;2.42;;;0.32;;
79414;SDS011;68864;44.972;19.612;2023-08-01T15:02:01;3.75;;;0.52;;
79414;SDS011;68864;44.972;19.612;2023-08-01T15:04:28;4.13;;;0.60;;
79414;SDS011;68864;44.972;19.612;2023-08-01T15:06:54;1.75;;;0.45;;
79414;SDS011;68864;44.972;19.612;2023-08-01T15:09:21;3.70;;;1.77;;
79414;SDS011;68864;44.972;19.612;2023-08-01T15:11:49;1.95;;;0.32;;
79414;SDS011;68864;44.972;19.612;2023-08-01T15:14:16;4.30;;;0.50;;
79414;SDS011;68864;44.972;19.612;2023-08-01T15:16:43;6.97;;;0.50;;